Arauca, Colombia

3:39 PM COT on October 25, 2014 (GMT -0500)
Santiago Perez | Change Station
CLOSE
Current Station
Airport
Location: Arauca,
Elevation: 420 ft
Nearby Weather Stations

Elev 420 ft 7.07 °N, 70.74 °W | Updated 39 minutes ago

Scattered Clouds
Scattered Clouds
86 °F
Feels Like 97 °F
N
2
Wind Variable Wind from Variable

Today
High -- | Low -- °F
--% Chance of Precip.
Yesterday
High -- | Low -- °F
Precip. -- in
5:29 AM 5:24 PM
Waxing Crescent, 4% visible
Pressure 29.78 in
Visibility 6.2 miles
Clouds Scattered Clouds 1200 ft
Scattered Clouds 20000 ft
Heat Index 97 °F
Dew Point 77 °F
Humidity 74%
Rainfall 0.00 in
Snow Depth Not available.
UV 4 out of 12
Pollen Not available.
Air Quality Not available.
Flu Activity Not available.
METAR SKUC 252000Z VRB02KT 9999 SCT012 SCT200 30/25 A2978

More Conditions Fewer Conditions

Pressure 29.78 in
Visibility 6.2 miles
Clouds Scattered Clouds 1200 ft
Scattered Clouds 20000 ft
Heat Index 97 °F
Dew Point 77 °F
Humidity 74%
Rainfall 0.00 in
Snow Depth Not available.
UV 4 out of 12
Pollen Not available.
Air Quality Not available.
Flu Activity Not available.
METAR SKUC 252000Z VRB02KT 9999 SCT012 SCT200 30/25 A2978

More Conditions Fewer Conditions

10-Day Weather Forecast

Almanac

Astronomy

Oct. 25, 2014 Rise Set
Actual Time 5:29 AM COT 5:24 PM COT
Civil Twilight 5:08 AM COT 5:45 PM COT
Nautical Twilight 4:43 AM COT 6:10 PM COT
Astronomical Twilight 4:19 AM COT 6:34 PM COT
Moon 6:52 AM COT 7:00 PM COT
Length of Visible Light 12h 37m
Length of Day
11h 54m
Tomorrow will be 0m 21s shorter.
Waxing Crescent, 4% of the Moon is Illuminated
Today
Waxing Crescent
Oct 30
First Quarter
Nov 6
Full
Nov 14
Last Quarter
Nov 22
New

Today's Extremes

Country Highs Country Lows

Community

WunderPhotos

Upload Photos

1,764,985 photos uploaded!

Nearby

Snow Depth

Not available.

Earthquake Activity

City Distance Mag. Time & Date
No recent earthquake activity has been reported nearby.
Minimum magnitude displayed is 2.5.

Coastal Water Temperatures

Place Temperature
No Stations Reporting

Nearby Weather Stations